Sanderson, Florida
Current Conditions -  °F | °C
As of 6:55 AM on Monday 22 Dec 2014 (Local Time) from KLCQ Reporting Station
Overcast Overcast  
Wind Chill: 63°   Ceiling: 6500
Heat Index: 63°   Visibility: 10mi
Dew Point: 63°   Wind: 7mph
Humidity: 100%   Direction: 130°SE
Pressure: 29.98"   Gusts: NA
Location:  30.25°N, 82.27°W
Report Text: KLCQ 221155Z AUTO 13006KT 10SM SCT002 SCT010 OVC065 17/17 A2998 RMK AO2 P0001
Loading
Personal Weather Stations






























Interactive Weather Map New forecast layout! Learn more

10-Day Weather Forecast

Advertisements
Track Severe Weather on mobile